01:40 Bike Moetz - Sagl - Buchen - Giessenbach
Ort Moetz Datum 05.09.2010 17:16:56
Kategorie MTB
Distanz 36,69 Kilometer Steigung 706,3 Meter Gefälle -273,7 Meter
Gesamt Zeit 01:40:27 Aktiv 01:40:27 Pause 00:00:00
Durchs. Tempo 21,9 km/h Tempo max. 56,8 km/h Tempo min. 9,2 km/h
Kalorien 0 Durchs. HF 158 BPM HF max. 174 BPM
Wetter 19 °C ScatterClouds
Ausrüstung Schwalbe - Nobby Nic vorne
Schwalbe - Racing Ralph hinten
Shimano - HG-93 XT
Specialized - BG S-Works MTB
Specialized - Stumpjumper Comp
SwissStop - Disc17 Avid Juicy
Notiz Moetz - Sagl - Buchen - Giessenbach ... neue PB gesamt und Auffahrt ... Auffahrt Buchen 38:04, 168 Puls, 75 Fr ... garmin connect
Splits
Distanz (km) Gesamt Zeit Split Zeit Split Tempo Split Tempo Höhenprofil (m)
1,00 00:02:09 00:02:09 00:02:09 27,9 -9,47
2,00 00:04:39 00:02:30 00:02:30 24,0 -0,53
3,00 00:06:43 00:02:04 00:02:04 29,0 -3,21
4,00 00:08:50 00:02:07 00:02:07 28,3 -1,01
5,00 00:10:54 00:02:04 00:02:04 29,0 -0,37
6,00 00:12:55 00:02:01 00:02:01 29,8 0,30
7,00 00:15:10 00:02:15 00:02:15 26,7 -1,59
8,00 00:17:18 00:02:08 00:02:08 28,1 -7,13
9,00 00:19:24 00:02:06 00:02:06 28,6 -2,05
10,00 00:21:29 00:02:05 00:02:05 28,8 -3,74
11,00 00:23:41 00:02:12 00:02:12 27,3 -3,63
12,00 00:25:48 00:02:07 00:02:07 28,3 2,41
13,00 00:27:44 00:01:56 00:01:56 31,0 -1,53
14,00 00:29:44 00:02:00 00:02:00 30,0 1,53
15,00 00:32:26 00:02:42 00:02:42 22,2 28,84
16,00 00:37:51 00:05:25 00:05:25 11,1 92,77
17,00 00:43:45 00:05:54 00:05:54 10,2 83,39
18,00 00:49:46 00:06:01 00:06:01 10,0 95,70
19,00 00:55:56 00:06:10 00:06:10 9,7 89,20
20,00 01:01:53 00:05:57 00:05:57 10,1 82,36
21,00 01:07:55 00:06:02 00:06:02 9,9 95,86
22,00 01:13:14 00:05:19 00:05:19 11,3 68,90
23,00 01:14:55 00:01:41 00:01:41 35,6 -24,06
24,00 01:16:09 00:01:14 00:01:14 48,6 -64,96
25,00 01:18:03 00:01:54 00:01:54 31,6 -8,00
26,00 01:19:57 00:01:54 00:01:54 31,6 -9,16
27,00 01:21:38 00:01:41 00:01:41 35,6 -19,83
28,00 01:23:35 00:01:57 00:01:57 30,8 -12,66
29,00 01:25:19 00:01:44 00:01:44 34,6 -8,35
30,00 01:28:55 00:03:36 00:03:36 16,7 46,17
31,00 01:31:50 00:02:55 00:02:55 20,6 3,71
32,00 01:33:09 00:01:19 00:01:19 45,6 -38,79
33,00 01:34:36 00:01:27 00:01:27 41,4 -24,17
34,00 01:36:04 00:01:28 00:01:28 40,9 -28,80
35,00 01:37:22 00:01:18 00:01:18 46,2 -40,07
36,00 01:38:54 00:01:32 00:01:32 39,1 -18,05